Time;durP1;ratioP1;P1;durP2;ratioP2;P2;SDS_P1;SDS_P2;PMS_P1;PMS_P2;Temp;Humidity;BMP_temperature;BMP_pressure;BME280_temperature;BME280_humidity;BME280_pressure;Samples;Min_cycle;Max_cycle;Signal;HPM_P1;HPM_P2
2022/08/24 00:01:22;;;;;;;8.58;7.22;;;;;;;22.08;58.11;100057.58;1769479;79;21017;-78
2022/08/24 00:03:49;;;;;;;10.78;7.53;;;;;;;22.08;57.98;100052.17;1777957;80;21057;-81
2022/08/24 00:06:19;;;;;;;9.08;7.15;;;;;;;22.09;57.83;100057.85;1783714;80;21060;-80
2022/08/24 00:08:48;;;;;;;10.95;7.62;;;;;;;22.09;57.76;100064.62;1806640;79;21293;-80
2022/08/24 00:11:17;;;;;;;11.60;7.30;;;;;;;22.10;57.64;100066.28;1748203;80;21076;-79
2022/08/24 00:13:45;;;;;;;11.73;6.58;;;;;;;22.09;57.89;100074.09;1753830;80;21018;-82
2022/08/24 00:16:12;;;;;;;12.23;8.13;;;;;;;22.08;57.79;100073.81;1776317;80;21046;-78
2022/08/24 00:18:38;;;;;;;11.48;7.20;;;;;;;22.07;57.72;100077.56;1771223;79;20982;-78
2022/08/24 00:21:06;;;;;;;9.43;6.72;;;;;;;22.05;57.67;100071.56;1775238;80;21114;-79
2022/08/24 00:23:35;;;;;;;14.10;7.78;;;;;;;22.03;57.60;100074.22;1779309;80;20997;-79
2022/08/24 00:26:01;;;;;;;8.55;6.87;;;;;;;22.01;57.49;100073.09;1754053;78;21006;-79
2022/08/24 00:28:29;;;;;;;12.93;7.40;;;;;;;21.99;57.43;100073.86;1774271;80;21064;-79
2022/08/24 00:30:55;;;;;;;8.25;6.60;;;;;;;21.98;57.53;100076.27;1772451;80;21024;-79
2022/08/24 00:33:22;;;;;;;9.73;7.35;;;;;;;21.96;57.41;100078.38;1758070;79;21185;-84
2022/08/24 00:35:49;;;;;;;7.83;7.03;;;;;;;21.94;57.50;100077.28;1774588;80;21064;-81
2022/08/24 00:38:15;;;;;;;14.68;7.30;;;;;;;21.92;57.36;100081.26;1784349;80;21095;-75
2022/08/24 00:40:45;;;;;;;9.63;6.97;;;;;;;21.90;57.28;100082.02;1777430;80;21068;-79
2022/08/24 00:43:11;;;;;;;8.60;7.70;;;;;;;21.89;57.22;100084.45;1755536;79;21352;-79
2022/08/24 00:46:00;;;;;;;7.92;7.12;;;;;;;21.87;57.20;100086.57;1734957;80;21138;-77
2022/08/24 00:48:30;;;;;;;11.22;7.03;;;;;;;21.85;57.10;100089.50;1788105;78;21014;-79
2022/08/24 00:51:02;;;;;;;10.45;7.00;;;;;;;21.82;56.91;100084.55;1769167;79;21083;-78
2022/08/24 00:53:36;;;;;;;8.73;7.33;;;;;;;21.79;56.95;100084.50;1751829;80;21103;-78
2022/08/24 00:56:08;;;;;;;8.33;7.10;;;;;;;21.78;56.75;100082.02;1786055;80;20985;-78
2022/08/24 00:58:42;;;;;;;10.78;6.90;;;;;;;21.76;56.95;100081.44;1745257;80;21104;-79
2022/08/24 01:01:10;;;;;;;7.80;7.00;;;;;;;21.71;56.99;100076.73;1750274;79;21537;-79
2022/08/24 01:03:36;;;;;;;9.40;7.30;;;;;;;21.70;56.83;100075.08;1764727;79;20956;-79
2022/08/24 01:06:04;;;;;;;10.80;6.72;;;;;;;21.68;56.72;100074.48;1753197;79;20931;-78
2022/08/24 01:08:31;;;;;;;12.88;6.87;;;;;;;21.65;56.74;100079.00;1799312;79;20984;-78
2022/08/24 01:11:00;;;;;;;11.68;6.83;;;;;;;21.64;56.60;100076.02;1757434;80;21132;-78
2022/08/24 01:13:27;;;;;;;12.82;6.97;;;;;;;21.63;56.50;100077.05;1756302;81;20979;-79
2022/08/24 01:15:58;;;;;;;12.73;7.37;;;;;;;21.60;56.45;100081.59;1771852;81;21043;-79
2022/08/24 01:21:25;;;;;;;9.03;7.12;;;;;;;21.58;56.48;100085.06;1753418;79;21093;-79
2022/08/24 01:23:56;;;;;;;9.10;6.95;;;;;;;21.55;56.44;100082.81;1769093;78;21169;-80
2022/08/24 01:26:28;;;;;;;8.05;6.85;;;;;;;21.51;56.57;100087.03;1773968;79;21096;-80
2022/08/24 01:28:59;;;;;;;7.28;6.33;;;;;;;21.47;56.57;100090.72;1762631;78;21093;-80
2022/08/24 01:31:25;;;;;;;10.60;7.25;;;;;;;21.46;56.83;100089.59;1773661;80;20985;-78
2022/08/24 01:33:53;;;;;;;11.83;6.87;;;;;;;21.41;56.94;100095.14;1777377;79;21081;-79
2022/08/24 01:36:41;;;;;;;8.20;7.05;;;;;;;21.38;56.98;100085.31;1758158;80;21121;-79
2022/08/24 01:39:25;;;;;;;8.70;6.78;;;;;;;21.34;57.02;100094.44;1764799;78;21006;-80
2022/08/24 01:41:51;;;;;;;11.20;7.67;;;;;;;21.32;56.91;100095.70;1767685;80;21029;-81
2022/08/24 01:44:19;;;;;;;10.40;6.92;;;;;;;21.29;57.32;100099.70;1772145;81;21089;-80
2022/08/24 01:49:30;;;;;;;8.80;7.22;;;;;;;21.26;58.66;100105.55;1816101;79;22591;-81
2022/08/24 01:51:57;;;;;;;10.50;7.95;;;;;;;21.18;58.99;100108.58;1785606;80;20956;-81
2022/08/24 01:54:24;;;;;;;10.08;7.20;;;;;;;21.13;59.49;100114.68;1773490;80;21525;-81
2022/08/24 01:56:51;;;;;;;12.25;7.72;;;;;;;21.07;60.02;100112.87;1778495;80;21007;-80
2022/08/24 01:59:19;;;;;;;11.18;8.10;;;;;;;20.97;60.83;100116.11;1769399;80;21013;-82
2022/08/24 02:01:49;;;;;;;7.83;7.03;;;;;;;20.88;60.80;100116.14;1759402;80;20957;-81
2022/08/24 02:04:17;;;;;;;10.43;7.47;;;;;;;20.81;61.93;100106.76;1765825;80;20930;-82
2022/08/24 02:06:45;;;;;;;8.70;7.03;;;;;;;20.76;61.97;100115.23;1787606;80;22222;-83
2022/08/24 02:09:13;;;;;;;10.55;7.35;;;;;;;20.71;61.98;100117.81;1784208;80;20973;-78
2022/08/24 02:11:39;;;;;;;9.33;7.65;;;;;;;20.66;61.77;100122.52;1764630;80;20938;-79
2022/08/24 02:14:07;;;;;;;8.68;7.28;;;;;;;20.62;61.55;100129.41;1777621;80;21271;-80
2022/08/24 02:16:35;;;;;;;10.88;7.33;;;;;;;20.59;61.13;100121.72;1774895;79;21021;-77
2022/08/24 02:19:02;;;;;;;9.45;7.40;;;;;;;20.54;60.55;100123.76;1765811;80;21155;-81
2022/08/24 02:21:29;;;;;;;8.33;6.65;;;;;;;20.54;59.83;100123.76;1786378;80;20997;-80
2022/08/24 02:23:55;;;;;;;11.60;7.28;;;;;;;20.52;59.68;100117.77;1776189;80;21100;-80
2022/08/24 02:26:22;;;;;;;9.90;7.00;;;;;;;20.53;59.12;100122.13;1782360;80;21025;-80
2022/08/24 02:28:49;;;;;;;8.88;6.75;;;;;;;20.53;58.91;100113.19;1769993;80;21086;-80
2022/08/24 02:31:16;;;;;;;8.83;7.00;;;;;;;20.52;58.82;100111.02;1772538;80;21191;-79
2022/08/24 02:33:43;;;;;;;11.22;7.05;;;;;;;20.52;58.57;100115.06;1737435;81;21025;-80
2022/08/24 02:36:10;;;;;;;12.88;7.17;;;;;;;20.52;58.35;100113.72;1748727;80;21097;-79
2022/08/24 02:38:38;;;;;;;7.28;6.58;;;;;;;20.51;58.28;100115.28;1750989;80;21062;-81
2022/08/24 02:41:08;;;;;;;8.23;6.50;;;;;;;20.51;58.10;100109.89;1714081;81;20994;-82
2022/08/24 02:43:36;;;;;;;9.55;6.30;;;;;;;20.50;57.93;100109.07;1700642;82;21194;-81
2022/08/24 02:46:03;;;;;;;9.93;6.67;;;;;;;20.50;57.75;100112.30;1723059;83;21058;-80
2022/08/24 02:48:29;;;;;;;9.58;7.15;;;;;;;20.49;57.81;100114.69;1739759;80;21034;-79
2022/08/24 02:50:56;;;;;;;8.58;6.92;;;;;;;20.48;57.73;100115.22;1734837;80;21042;-78
2022/08/24 02:53:23;;;;;;;11.88;6.65;;;;;;;20.47;57.70;100114.91;1735901;82;21023;-78
2022/08/24 02:55:50;;;;;;;7.95;6.72;;;;;;;20.46;57.47;100115.97;1719485;80;21145;-80
2022/08/24 02:58:17;;;;;;;10.78;6.65;;;;;;;20.45;57.56;100120.23;1729650;80;21019;-83
2022/08/24 03:00:46;;;;;;;8.45;6.20;;;;;;;20.42;57.53;100121.52;1719207;82;21156;-81
2022/08/24 03:03:13;;;;;;;7.40;6.65;;;;;;;20.40;57.36;100124.97;1706331;83;21080;-82
2022/08/24 03:05:41;;;;;;;10.35;6.53;;;;;;;20.38;57.24;100123.02;1705215;84;22129;-82
2022/08/24 03:08:08;;;;;;;14.83;6.90;;;;;;;20.38;57.28;100124.36;1761659;80;21547;-81
2022/08/24 03:10:36;;;;;;;11.48;6.87;;;;;;;20.36;57.78;100132.67;1749017;80;21022;-81
2022/08/24 03:13:03;;;;;;;12.65;7.80;;;;;;;20.34;57.59;100133.92;1768937;80;21067;-82
2022/08/24 03:15:31;;;;;;;6.87;5.85;;;;;;;20.33;57.58;100134.98;1754923;79;21055;-81
2022/08/24 03:17:58;;;;;;;8.28;6.40;;;;;;;20.31;57.60;100129.81;1694620;83;21058;-80
2022/08/24 03:20:25;;;;;;;9.08;6.28;;;;;;;20.30;57.63;100134.92;1760525;80;21217;-79
2022/08/24 03:22:52;;;;;;;7.83;6.12;;;;;;;20.30;57.65;100132.22;1777151;80;21416;-80
2022/08/24 03:25:19;;;;;;;7.87;6.15;;;;;;;20.31;57.66;100131.69;1761587;80;20900;-82
2022/08/24 03:27:46;;;;;;;9.48;6.55;;;;;;;20.30;57.39;100128.67;1760957;80;21531;-81
2022/08/24 03:30:14;;;;;;;9.18;6.30;;;;;;;20.30;57.27;100135.42;1699943;84;21030;-80
2022/08/24 03:32:41;;;;;;;10.13;5.95;;;;;;;20.30;57.11;100125.98;1767221;80;21791;-81
2022/08/24 03:35:09;;;;;;;9.85;6.20;;;;;;;20.30;56.80;100133.58;1704753;84;21030;-79
2022/08/24 03:37:36;;;;;;;8.48;6.10;;;;;;;20.32;56.73;100127.93;1760000;80;21022;-82
2022/08/24 03:40:05;;;;;;;9.10;6.33;;;;;;;20.32;56.35;100134.67;1754492;80;21076;-79
2022/08/24 03:42:33;;;;;;;7.85;5.95;;;;;;;20.34;56.19;100137.97;1769755;80;21037;-80
2022/08/24 03:44:59;;;;;;;9.28;6.05;;;;;;;20.35;55.96;100143.69;1757848;80;22065;-79
2022/08/24 03:47:26;;;;;;;9.35;5.47;;;;;;;20.36;55.85;100147.52;1756271;80;21531;-82
2022/08/24 03:49:55;;;;;;;9.15;6.17;;;;;;;20.38;55.54;100156.21;1757354;80;21061;-81
2022/08/24 03:52:22;;;;;;;8.85;5.72;;;;;;;20.42;55.42;100155.25;1746538;80;21095;-83
2022/08/24 03:54:48;;;;;;;7.58;5.33;;;;;;;20.46;55.14;100157.80;1745846;80;20998;-80
2022/08/24 03:57:15;;;;;;;7.40;5.55;;;;;;;20.50;54.96;100152.25;1746533;80;21240;-80
2022/08/24 03:59:42;;;;;;;6.70;5.10;;;;;;;20.55;54.62;100151.06;1739296;80;21109;-81
2022/08/24 04:02:09;;;;;;;11.35;5.50;;;;;;;20.60;54.45;100161.20;1757160;80;21010;-80
2022/08/24 04:04:35;;;;;;;5.75;5.10;;;;;;;20.66;54.21;100151.39;1743942;80;21014;-79
2022/08/24 04:07:03;;;;;;;8.45;5.30;;;;;;;20.72;53.96;100154.53;1774598;80;21029;-79
2022/08/24 04:09:30;;;;;;;6.22;4.78;;;;;;;20.82;53.55;100153.48;1769420;80;21123;-80
2022/08/24 04:11:56;;;;;;;6.72;4.67;;;;;;;20.96;53.13;100153.64;1752131;80;21042;-80
2022/08/24 04:14:25;;;;;;;6.87;5.42;;;;;;;21.11;52.92;100154.61;1766872;80;21484;-79
2022/08/24 04:16:53;;;;;;;7.80;4.55;;;;;;;21.24;52.68;100150.06;1775280;80;21022;-80
2022/08/24 04:19:22;;;;;;;8.73;4.90;;;;;;;21.33;52.58;100150.88;1768205;80;21026;-80
2022/08/24 04:21:48;;;;;;;5.67;4.90;;;;;;;21.48;52.23;100153.70;1753262;80;21134;-81
2022/08/24 04:24:16;;;;;;;9.30;5.08;;;;;;;21.70;51.83;100148.08;1751857;80;21569;-79
2022/08/24 04:26:42;;;;;;;9.40;4.95;;;;;;;21.89;51.32;100148.83;1768223;80;21320;-79
2022/08/24 04:29:10;;;;;;;7.28;4.60;;;;;;;21.97;50.93;100148.48;1762928;79;21053;-80
2022/08/24 04:31:39;;;;;;;5.78;4.90;;;;;;;21.99;50.62;100140.13;1756844;80;21058;-81
2022/08/24 04:34:06;;;;;;;11.50;4.95;;;;;;;21.97;50.74;100141.71;1763676;80;21244;-80
2022/08/24 04:36:34;;;;;;;7.28;5.50;;;;;;;22.01;50.49;100148.02;1774139;80;21076;-80
2022/08/24 04:39:01;;;;;;;7.58;4.65;;;;;;;22.04;50.39;100152.44;1729290;82;21018;-83
2022/08/24 04:41:46;;;;;;;6.42;4.65;;;;;;;22.08;50.26;100149.56;1739508;82;21551;-79
2022/08/24 04:44:13;;;;;;;8.35;4.75;;;;;;;22.12;50.10;100147.22;1748556;80;21093;-79
2022/08/24 04:46:40;;;;;;;11.55;5.72;;;;;;;22.12;50.05;100146.67;1772512;80;21093;-80
2022/08/24 04:49:08;;;;;;;6.85;5.33;;;;;;;22.12;49.84;100139.91;1752334;80;21038;-82
2022/08/24 04:51:35;;;;;;;6.75;4.60;;;;;;;22.11;49.90;100136.90;1756588;80;21007;-76
2022/08/24 04:54:01;;;;;;;6.65;4.83;;;;;;;22.12;49.90;100138.56;1753025;80;21293;-78
2022/08/24 04:56:29;;;;;;;8.18;4.83;;;;;;;22.12;49.89;100133.15;1773950;80;21152;-79
2022/08/24 04:58:56;;;;;;;7.37;4.67;;;;;;;22.11;49.79;100136.90;1764717;80;21147;-79
2022/08/24 05:01:25;;;;;;;7.15;5.30;;;;;;;22.09;49.83;100140.38;1701386;84;21026;-79
2022/08/24 05:03:53;;;;;;;7.97;4.78;;;;;;;22.09;49.85;100141.72;1761390;80;21014;-77
2022/08/24 05:06:23;;;;;;;8.23;5.47;;;;;;;22.09;49.90;100133.61;1770870;79;21510;-80
2022/08/24 05:08:50;;;;;;;9.08;5.40;;;;;;;22.10;49.97;100136.63;1747403;80;21117;-79
2022/08/24 05:11:19;;;;;;;7.12;5.12;;;;;;;22.10;50.11;100133.09;1758744;80;21051;-81
2022/08/24 05:13:46;;;;;;;6.42;4.67;;;;;;;22.13;50.21;100129.91;1744012;80;21534;-80
2022/08/24 05:16:20;;;;;;;8.33;5.05;;;;;;;22.15;50.21;100136.72;1758706;80;21058;-78
2022/08/24 05:18:44;;;;;;;9.55;5.33;;;;;;;22.19;50.03;100135.22;1734390;80;21343;-80
2022/08/24 05:21:14;;;;;;;8.45;5.17;;;;;;;22.24;49.85;100133.69;1764816;80;21023;-81
2022/08/24 05:23:42;;;;;;;8.93;5.05;;;;;;;22.28;49.60;100134.89;1775894;80;21104;-80
2022/08/24 05:26:12;;;;;;;8.78;4.75;;;;;;;22.30;49.62;100136.29;1768759;80;20975;-80
2022/08/24 05:28:38;;;;;;;8.75;4.95;;;;;;;22.35;49.56;100138.30;1755016;80;21030;-80
2022/08/24 05:31:17;;;;;;;8.35;5.08;;;;;;;22.41;49.53;100137.86;1713465;83;20999;-80
2022/08/24 05:33:47;;;;;;;11.68;5.70;;;;;;;22.44;49.89;100132.80;1750301;80;21057;-79
2022/08/24 05:36:17;;;;;;;9.23;4.95;;;;;;;22.48;49.71;100133.97;1751993;80;21129;-81
2022/08/24 05:38:44;;;;;;;7.65;4.95;;;;;;;22.51;49.76;100130.80;1763807;79;21046;-80
2022/08/24 05:41:10;;;;;;;8.58;5.10;;;;;;;22.56;49.41;100130.92;1751442;80;21034;-80
2022/08/24 05:43:38;;;;;;;12.93;5.12;;;;;;;22.62;49.25;100127.80;1759173;80;21570;-79
2022/08/24 05:46:05;;;;;;;8.55;5.67;;;;;;;22.66;49.33;100122.20;1767038;80;21053;-81
2022/08/24 05:48:34;;;;;;;8.35;4.95;;;;;;;22.71;49.58;100123.63;1755364;80;21327;-79
2022/08/24 05:51:06;;;;;;;11.45;4.80;;;;;;;22.77;49.32;100121.86;1734913;80;21019;-79
2022/08/24 05:53:35;;;;;;;9.95;5.60;;;;;;;22.84;49.10;100128.52;1751620;79;21027;-80
2022/08/24 05:56:04;;;;;;;7.78;4.65;;;;;;;22.90;49.33;100127.01;1758340;80;21534;-79
2022/08/24 05:58:30;;;;;;;10.03;5.00;;;;;;;22.97;48.89;100135.02;1766617;80;21023;-80
2022/08/24 06:00:58;;;;;;;7.37;5.15;;;;;;;23.02;48.87;100136.99;1760420;80;21135;-79
2022/08/24 06:03:26;;;;;;;10.15;4.42;;;;;;;23.07;49.11;100137.13;1753353;80;21064;-78
2022/08/24 06:05:53;;;;;;;7.33;4.97;;;;;;;23.12;48.94;100136.70;1755880;80;21022;-80
2022/08/24 06:08:21;;;;;;;6.65;4.90;;;;;;;23.17;48.81;100141.39;1765865;80;21100;-80
2022/08/24 06:10:49;;;;;;;7.70;5.12;;;;;;;23.22;49.24;100136.59;1751550;80;21008;-79
2022/08/24 06:13:16;;;;;;;6.42;4.90;;;;;;;23.29;49.05;100139.44;1759748;80;21170;-81
2022/08/24 06:15:43;;;;;;;7.55;5.42;;;;;;;;;;1696370;84;21095;-80
2022/08/24 06:18:10;;;;;;;8.95;5.08;;;;;;;23.42;49.00;100137.52;1737127;82;21100;-81
2022/08/24 06:20:39;;;;;;;7.15;5.40;;;;;;;23.48;49.01;100140.06;1760627;80;21046;-81
2022/08/24 06:23:08;;;;;;;10.80;4.83;;;;;;;23.54;48.11;100140.44;1705254;84;21015;-80
2022/08/24 06:28:24;;;;;;;7.50;4.62;;;;;;;23.62;47.81;100145.19;1777491;80;21010;-79
2022/08/24 06:31:06;;;;;;;10.88;4.85;;;;;;;23.70;47.84;100138.84;1768330;80;20983;-78
2022/08/24 06:33:33;;;;;;;7.25;5.00;;;;;;;23.81;47.63;100147.98;1757341;80;21058;-80
2022/08/24 06:36:01;;;;;;;6.83;4.97;;;;;;;23.89;47.80;100142.69;1756679;80;21011;-81
2022/08/24 06:38:29;;;;;;;8.78;5.90;;;;;;;23.96;47.36;100145.25;1729004;82;21932;-81
2022/08/24 06:41:00;;;;;;;9.03;5.12;;;;;;;24.00;47.31;100142.33;1752505;80;21018;-83
2022/08/24 06:43:26;;;;;;;7.37;5.55;;;;;;;24.07;47.18;100138.92;1766386;80;21029;-84
2022/08/24 06:45:54;;;;;;;8.20;4.97;;;;;;;24.13;47.65;100142.81;1766286;80;21065;-84
2022/08/24 06:48:23;;;;;;;7.50;5.33;;;;;;;24.23;47.41;100146.75;1761771;80;20955;-82
2022/08/24 06:50:50;;;;;;;5.35;4.85;;;;;;;24.31;47.41;100147.69;1746691;79;21076;-83
2022/08/24 06:53:16;;;;;;;6.87;5.25;;;;;;;24.41;47.39;100152.44;1764257;80;21143;-83
2022/08/24 06:55:54;;;;;;;10.32;6.30;;;;;;;24.47;46.98;100152.79;1752571;80;21100;-81
2022/08/24 06:58:20;;;;;;;11.73;5.25;;;;;;;24.56;47.19;100158.66;1763271;80;21034;-83
2022/08/24 07:00:47;;;;;;;10.85;5.28;;;;;;;24.65;46.78;100158.52;1773733;80;21050;-84
2022/08/24 07:03:14;;;;;;;10.88;6.00;;;;;;;24.72;46.41;100157.27;1766230;80;21220;-81
2022/08/24 07:05:56;;;;;;;6.85;4.85;;;;;;;24.80;46.51;100156.52;1767742;80;21402;-82
2022/08/24 07:08:34;;;;;;;9.55;5.40;;;;;;;24.85;46.25;100163.39;1753237;80;21566;-83
2022/08/24 07:11:01;;;;;;;8.33;5.05;;;;;;;24.91;46.02;100169.98;1755891;80;21015;-84
2022/08/24 07:13:33;;;;;;;10.30;5.20;;;;;;;25.00;46.15;100162.77;1761633;80;21577;-83
2022/08/24 07:15:59;;;;;;;11.20;5.60;;;;;;;25.08;46.00;100173.19;1766598;80;21249;-83
2022/08/24 07:18:27;;;;;;;9.93;5.17;;;;;;;25.15;45.76;100165.66;1751193;80;21042;-84
2022/08/24 07:20:54;;;;;;;10.93;5.30;;;;;;;25.20;45.77;100162.98;1744174;80;21018;-85
2022/08/24 07:23:25;;;;;;;7.65;5.62;;;;;;;25.24;45.59;100163.33;1761174;80;20995;-82
2022/08/24 07:25:52;;;;;;;13.08;6.35;;;;;;;25.29;45.54;100173.73;1763759;80;21045;-83
2022/08/24 07:28:20;;;;;;;14.33;5.85;;;;;;;25.36;45.54;100173.52;1772397;78;21187;-83
2022/08/24 07:30:46;;;;;;;14.15;5.75;;;;;;;25.42;45.57;100168.95;1764096;80;21050;-84
2022/08/24 07:33:13;;;;;;;8.75;6.00;;;;;;;25.48;45.72;100172.84;1747079;80;21042;-82
2022/08/24 07:35:40;;;;;;;9.93;5.90;;;;;;;25.56;45.87;100168.84;1762959;80;21562;-83
2022/08/24 07:38:07;;;;;;;9.05;5.55;;;;;;;25.64;45.94;100164.83;1763755;80;21014;-85
2022/08/24 07:40:34;;;;;;;15.28;5.47;;;;;;;25.75;45.53;100176.09;1756504;80;21061;-85
2022/08/24 07:43:00;;;;;;;12.63;5.83;;;;;;;25.83;45.11;100176.98;1752027;80;21556;-83
2022/08/24 07:45:27;;;;;;;14.75;6.03;;;;;;;25.89;45.17;100175.13;1764212;80;21516;-82
2022/08/24 07:47:55;;;;;;;8.78;5.85;;;;;;;25.98;45.18;100172.77;1772448;80;21115;-82
2022/08/24 07:50:41;;;;;;;12.47;5.45;;;;;;;26.09;45.08;100171.22;1746201;82;21069;-78
2022/08/24 07:53:08;;;;;;;13.13;5.17;;;;;;;26.21;44.68;100176.51;1752726;80;21136;-81
2022/08/24 07:55:35;;;;;;;12.15;5.87;;;;;;;26.32;44.35;100186.09;1740778;80;20990;-78
2022/08/24 07:58:02;;;;;;;14.70;6.70;;;;;;;26.44;44.11;100178.55;1751055;82;21041;-79
2022/08/24 08:00:29;;;;;;;9.73;5.65;;;;;;;26.54;43.87;100180.51;1728153;82;21054;-81
2022/08/24 08:02:58;;;;;;;12.20;5.90;;;;;;;26.64;43.90;100171.89;1748040;81;21025;-82
2022/08/24 08:05:25;;;;;;;13.88;5.70;;;;;;;26.80;43.53;100174.70;1725254;81;21131;-83
2022/08/24 08:07:52;;;;;;;10.23;5.90;;;;;;;26.93;43.49;100166.59;1745182;80;21074;-82
2022/08/24 08:10:20;;;;;;;14.35;6.28;;;;;;;27.05;43.31;100165.26;1765367;80;21143;-83
2022/08/24 08:12:47;;;;;;;13.08;6.42;;;;;;;27.21;43.27;100170.20;1746690;81;21061;-83
2022/08/24 08:15:14;;;;;;;24.43;6.62;;;;;;;27.37;42.66;100168.39;1720448;81;21100;-81
2022/08/24 08:17:43;;;;;;;20.80;7.17;;;;;;;27.51;42.60;100165.96;1755016;81;21208;-83
2022/08/24 08:20:11;;;;;;;24.63;6.78;;;;;;;27.71;42.15;100167.08;1754115;81;21044;-82
2022/08/24 08:25:37;;;;;;;18.32;6.90;;;;;;;28.04;41.91;100166.55;1725891;80;21001;-78
2022/08/24 08:28:05;;;;;;;15.93;7.75;;;;;;;28.25;41.11;100163.80;1750135;80;21564;-79
2022/08/24 08:30:32;;;;;;;24.67;7.40;;;;;;;28.43;40.90;100167.86;1737349;81;21522;-83
2022/08/24 08:32:59;;;;;;;12.93;5.70;;;;;;;28.59;40.47;100171.43;1681211;84;21066;-83
2022/08/24 08:35:25;;;;;;;20.57;6.65;;;;;;;28.73;39.76;100177.13;1728262;82;21045;-82
2022/08/24 08:37:52;;;;;;;17.55;6.40;;;;;;;28.86;39.81;100168.85;1747364;81;21078;-82
2022/08/24 08:40:47;;;;;;;16.75;5.03;;;;;;;29.05;39.66;100171.23;1748544;81;21053;-82
2022/08/24 08:43:42;;;;;;;17.67;6.30;;;;;;;29.23;38.86;100174.48;1739062;80;21090;-81
2022/08/24 08:46:33;;;;;;;19.42;6.33;;;;;;;29.41;38.72;100169.70;1764737;81;20958;-81
2022/08/24 08:49:35;;;;;;;22.17;6.72;;;;;;;29.58;38.09;100176.98;1745147;81;21025;-82
2022/08/24 08:52:55;;;;;;;18.55;6.30;;;;;;;29.78;38.11;100172.48;1737989;81;21057;-80
2022/08/24 08:55:49;;;;;;;12.88;6.40;;;;;;;29.99;37.78;100168.47;1751358;80;21598;-81
2022/08/24 08:58:47;;;;;;;13.85;5.65;;;;;;;30.24;37.46;100166.61;1737567;81;21578;-80
2022/08/24 09:01:56;;;;;;;18.60;5.75;;;;;;;30.50;36.91;100157.61;1748555;80;21194;-80
2022/08/24 09:05:10;;;;;;;17.48;5.70;;;;;;;30.77;36.24;100154.81;1741677;81;22777;-81
2022/08/24 09:08:03;;;;;;;9.95;5.25;;;;;;;31.08;35.10;100168.17;1746638;80;20975;-84
2022/08/24 09:11:00;;;;;;;13.98;4.90;;;;;;;31.35;34.63;100158.75;1736017;80;21190;-85
2022/08/24 09:14:05;;;;;;;15.72;5.53;;;;;;;31.70;34.18;100168.14;1745979;81;21629;-84
2022/08/24 09:17:02;;;;;;;16.45;5.40;;;;;;;32.21;33.41;100159.05;1717609;82;21024;-83
2022/08/24 09:20:05;;;;;;;12.18;4.95;;;;;;;32.86;32.86;100163.58;1750159;81;21069;-84
2022/08/24 09:22:36;;;;;;;14.63;5.50;;;;;;;33.48;32.05;100158.93;1696111;81;21054;-83
2022/08/24 09:25:23;;;;;;;18.10;5.87;;;;;;;34.12;31.67;100155.17;1740053;81;21117;-85
2022/08/24 09:28:06;;;;;;;13.35;5.40;;;;;;;34.78;30.96;100164.17;1732515;82;21226;-85
2022/08/24 09:31:08;;;;;;;15.72;4.97;;;;;;;35.41;30.43;100153.16;1755447;81;22098;-85
2022/08/24 09:33:49;;;;;;;16.75;4.95;;;;;;;35.95;29.93;100148.66;1750832;81;21302;-77
2022/08/24 09:36:56;;;;;;;12.10;4.80;;;;;;;36.52;29.43;100150.83;1742689;81;21604;-77
2022/08/24 09:39:43;;;;;;;11.85;4.90;;;;;;;37.07;28.68;100153.20;1743770;81;21057;-83
2022/08/24 09:42:55;;;;;;;16.87;5.17;;;;;;;37.49;28.05;100150.46;1739754;80;21529;-83
2022/08/24 09:45:39;;;;;;;12.07;5.05;;;;;;;37.82;28.26;100145.53;1742924;81;28395;-85
2022/08/24 09:48:25;;;;;;;12.85;5.33;;;;;;;38.41;27.68;100152.72;1748085;82;21190;-83
2022/08/24 09:51:09;;;;;;;12.78;5.15;;;;;;;38.96;27.12;100143.55;1737258;81;21017;-80
2022/08/24 09:54:22;;;;;;;9.55;4.85;;;;;;;39.42;27.24;100135.80;1720646;81;21073;-83
2022/08/24 09:57:10;;;;;;;9.53;4.95;;;;;;;39.90;26.42;100133.40;1727744;81;21769;-82
2022/08/24 09:59:55;;;;;;;9.43;4.22;;;;;;;40.36;25.99;100141.94;1747050;81;21122;-81
2022/08/24 10:02:57;;;;;;;11.00;4.85;;;;;;;40.73;25.55;100141.61;1730336;80;21568;-81
2022/08/24 10:05:48;;;;;;;;;;;;;;;41.02;25.65;100144.47;1724863;81;21057;-81
2022/08/24 10:08:52;;;;;;;7.07;3.97;;;;;;;41.27;25.00;100135.27;1745599;81;20554;-78
2022/08/24 10:11:47;;;;;;;17.02;5.67;;;;;;;41.46;25.05;100121.92;1736458;82;21098;-82
2022/08/24 10:14:52;;;;;;;11.63;5.00;;;;;;;41.75;24.74;100133.64;1762566;80;21062;-79
2022/08/24 10:17:31;;;;;;;12.13;4.85;;;;;;;41.93;24.49;100139.54;1756613;80;20987;-83
2022/08/24 10:20:22;;;;;;;15.78;4.90;;;;;;;42.21;24.57;100133.68;1748413;81;21051;-82
2022/08/24 10:23:20;;;;;;;12.68;4.80;;;;;;;42.40;23.94;100129.40;1755032;80;21070;-80
2022/08/24 10:25:56;;;;;;;14.25;4.58;;;;;;;42.31;24.02;100137.23;1744589;80;21158;-83
2022/08/24 10:29:04;;;;;;;16.07;4.72;;;;;;;42.22;23.82;100143.05;1747115;81;21058;-82
2022/08/24 10:32:11;;;;;;;13.10;4.05;;;;;;;42.18;24.13;100128.23;1754793;81;21079;-84
2022/08/24 10:35:07;;;;;;;9.98;4.17;;;;;;;42.79;23.39;100128.40;1747258;81;21069;-81
2022/08/24 10:39:39;;;;;;;9.93;4.40;;;;;;;42.79;23.39;100128.40;1733391;82;21012;-81
2022/08/24 10:40:49;;;;;;;10.30;3.85;;;;;;;43.04;23.74;100134.92;1729901;81;21175;-81
2022/08/24 10:43:45;;;;;;;12.05;4.85;;;;;;;43.19;23.34;100133.92;1737328;81;21034;-79
2022/08/24 10:46:29;;;;;;;11.38;4.40;;;;;;;43.21;23.58;100128.75;1729858;80;21027;-80
2022/08/24 10:49:38;;;;;;;14.18;4.72;;;;;;;43.48;23.60;100132.89;1719367;81;21061;-84
2022/08/24 10:52:46;;;;;;;11.48;4.40;;;;;;;43.72;23.23;100128.19;1765120;81;21034;-80
2022/08/24 10:55:24;;;;;;;12.73;5.33;;;;;;;43.86;23.22;100122.52;1697844;83;21384;-80
2022/08/24 10:58:22;;;;;;;13.60;4.40;;;;;;;44.17;23.36;100131.01;1746766;80;21064;-83
2022/08/24 11:00:49;;;;;;;14.40;5.92;;;;;;;44.55;22.80;100124.11;1727182;82;21556;-83
2022/08/24 11:03:21;;;;;;;15.30;5.22;;;;;;;44.89;22.84;100120.31;1740476;80;21026;-81
2022/08/24 11:05:50;;;;;;;;;;;;;;;45.29;22.57;100117.91;1737633;81;21034;-85
2022/08/24 11:08:23;;;;;;;14.93;5.42;;;;;;;45.72;22.53;100114.41;1742809;80;21849;-84
2022/08/24 11:11:12;;;;;;;11.33;5.33;;;;;;;46.01;22.17;100111.63;1701259;81;21049;-83
2022/08/24 11:13:59;;;;;;;10.95;5.40;;;;;;;46.35;22.17;100110.63;1742463;80;21540;-86
2022/08/24 11:16:39;;;;;;;16.10;5.87;;;;;;;46.76;22.15;100103.73;1740309;81;21526;-81
2022/08/24 11:19:10;;;;;;;11.15;5.17;;;;;;;46.92;21.87;100111.72;1741035;80;21088;-83
2022/08/24 11:21:52;;;;;;;18.42;5.65;;;;;;;46.95;21.75;100106.09;1737053;80;21573;-80
2022/08/24 11:24:27;;;;;;;19.10;5.55;;;;;;;46.99;21.87;100106.08;1738957;80;21065;-79
2022/08/24 11:26:59;;;;;;;13.40;5.62;;;;;;;46.98;21.73;100105.87;1736951;81;21105;-82
2022/08/24 11:29:30;;;;;;;14.20;5.25;;;;;;;47.05;21.73;100103.83;1759903;81;21033;-79
2022/08/24 11:31:57;;;;;;;11.88;5.00;;;;;;;47.15;21.74;100104.19;1744008;80;21033;-80
2022/08/24 11:34:35;;;;;;;10.68;4.70;;;;;;;47.25;21.59;100103.34;1690418;84;21896;-80
2022/08/24 11:37:02;;;;;;;10.35;4.87;;;;;;;47.24;21.60;100091.92;1758811;81;21574;-80
2022/08/24 11:39:35;;;;;;;12.70;5.53;;;;;;;47.19;22.17;100103.59;1740806;81;21053;-77
2022/08/24 11:42:13;;;;;;;14.85;5.67;;;;;;;47.20;21.66;100100.98;1746706;80;21141;-79
2022/08/24 11:44:48;;;;;;;11.50;5.55;;;;;;;47.06;21.47;100096.21;1750560;81;21058;-78
2022/08/24 11:47:42;;;;;;;10.15;4.42;;;;;;;47.04;21.76;100096.61;1724295;81;21407;-78
2022/08/24 11:50:25;;;;;;;17.20;5.35;;;;;;;47.30;21.50;100093.08;1625947;87;21087;-79
2022/08/24 11:53:15;;;;;;;13.88;5.08;;;;;;;47.51;21.21;100105.42;1720525;83;21110;-76
2022/08/24 11:55:56;;;;;;;10.82;4.60;;;;;;;47.36;21.08;100092.84;1700115;82;21266;-79
2022/08/24 11:58:34;;;;;;;8.88;4.45;;;;;;;47.13;21.41;100097.56;1719381;82;21295;-77
2022/08/24 12:01:19;;;;;;;10.05;4.97;;;;;;;46.93;21.51;100098.67;1719565;82;21446;-78
2022/08/24 12:04:15;;;;;;;9.03;4.22;;;;;;;46.65;21.51;100088.30;1712842;82;21041;-78